Time;durP1;ratioP1;P1;durP2;ratioP2;P2;SDS_P1;SDS_P2;PMS_P1;PMS_P2;Temp;Humidity;BMP_temperature;BMP_pressure;BME280_temperature;BME280_humidity;BME280_pressure;Samples;Min_cycle;Max_cycle;Signal;HPM_P1;HPM_P2
2023/04/30 00:00:44;;;;;;;3.63;1.38;;;;;;;16.17;100.00;100284.31;7395566;19;20074;-85
2023/04/30 00:03:10;;;;;;;1.55;1.17;;;;;;;29.61;63.01;100260.06;7394872;19;20014;-84
2023/04/30 00:05:37;;;;;;;1.98;1.38;;;;;;;31.44;52.39;100261.59;7396793;19;20678;-85
2023/04/30 00:08:03;;;;;;;2.65;1.05;;;;;;;32.52;47.62;100256.81;7396615;19;20082;-84
2023/04/30 00:10:30;;;;;;;1.17;0.52;;;;;;;32.99;45.31;100259.84;7391179;19;20010;-91
2023/04/30 00:12:56;;;;;;;2.22;1.42;;;;;;;33.29;44.10;100264.69;7398591;19;20142;-90
2023/04/30 00:15:22;;;;;;;1.80;0.90;;;;;;;33.35;43.10;100267.97;7399351;19;20011;-92
2023/04/30 00:17:49;;;;;;;4.85;1.67;;;;;;;33.53;42.21;100260.44;7396695;19;20504;-91
2023/04/30 00:20:16;;;;;;;3.35;1.00;;;;;;;34.14;41.01;100262.78;7393306;19;20010;-89
2023/04/30 00:22:42;;;;;;;4.78;1.35;;;;;;;34.51;39.55;100256.28;7396662;19;20015;-96
2023/04/30 00:25:09;;;;;;;4.90;1.40;;;;;;;34.72;38.97;100253.16;7411494;19;20010;-84
2023/04/30 00:27:35;;;;;;;2.70;1.63;;;;;;;34.82;38.57;100257.41;7395681;19;20018;-85
2023/04/30 00:30:01;;;;;;;3.25;1.15;;;;;;;34.77;37.99;100255.66;7392668;19;20021;-85
2023/04/30 00:32:28;;;;;;;2.25;1.17;;;;;;;34.71;37.60;100246.63;7394612;19;20022;-84
2023/04/30 00:34:57;;;;;;;4.25;1.23;;;;;;;34.76;37.79;100242.56;7397949;19;20011;-84
2023/04/30 00:37:24;;;;;;;6.82;1.58;;;;;;;34.71;37.50;100251.66;7395399;19;20370;-85
2023/04/30 00:39:53;;;;;;;3.33;1.60;;;;;;;34.62;37.19;100249.69;7398086;19;20014;-85
2023/04/30 00:42:19;;;;;;;7.47;1.98;;;;;;;34.71;36.72;100242.97;7392513;19;20045;-85
2023/04/30 00:44:45;;;;;;;5.40;1.65;;;;;;;34.38;37.04;100248.25;7393777;19;20022;-84
2023/04/30 00:47:11;;;;;;;5.55;1.05;;;;;;;34.38;36.84;100249.00;7391432;19;20536;-84
2023/04/30 00:52:07;;;;;;;3.45;1.48;;;;;;;34.22;36.92;100254.59;7390734;19;20018;-82
2023/04/30 00:54:34;;;;;;;4.28;1.08;;;;;;;34.49;36.49;100247.44;7387810;19;20024;-82
2023/04/30 00:57:02;;;;;;;2.10;1.60;;;;;;;34.57;36.65;100242.16;7386818;19;20018;-81
2023/04/30 00:59:29;;;;;;;2.35;1.58;;;;;;;34.66;36.57;100247.78;7390109;19;20706;-82
2023/04/30 01:01:55;;;;;;;2.83;1.58;;;;;;;34.58;36.33;100235.75;7391472;19;20022;-81
2023/04/30 01:04:22;;;;;;;2.88;1.80;;;;;;;34.72;36.34;100241.56;7390857;19;20704;-82
2023/04/30 01:06:48;;;;;;;8.27;2.00;;;;;;;34.73;36.11;100225.72;7389433;19;20022;-81
2023/04/30 01:09:15;;;;;;;2.17;1.08;;;;;;;34.73;36.41;100226.47;7389300;19;20018;-81
2023/04/30 01:11:55;;;;;;;1.45;0.88;;;;;;;34.71;35.57;100223.47;7390295;19;20421;-81
2023/04/30 01:14:37;;;;;;;2.10;1.27;;;;;;;34.72;35.71;100224.97;7391490;19;20037;-82
2023/04/30 01:17:44;;;;;;;4.80;1.55;;;;;;;34.80;35.46;100218.91;7389816;19;20022;-82
2023/04/30 01:20:11;;;;;;;5.50;1.63;;;;;;;34.75;35.58;100222.94;7388515;19;20079;-82
2023/04/30 01:22:40;;;;;;;6.45;1.80;;;;;;;34.72;35.65;100215.53;7390467;19;20011;-82
2023/04/30 01:25:35;;;;;;;2.67;0.77;;;;;;;34.67;35.38;100222.50;7393015;19;20027;-82
2023/04/30 01:28:04;;;;;;;4.88;1.52;;;;;;;34.60;35.49;100217.75;7392818;19;20524;-81
2023/04/30 01:30:31;;;;;;;2.22;1.50;;;;;;;21.12;75.63;100243.22;7388230;19;20518;-82
2023/04/30 01:32:58;;;;;;;3.92;1.92;;;;;;;17.53;100.00;100249.81;7392264;19;20014;-82
2023/04/30 01:35:52;;;;;;;2.45;0.93;;;;;;;18.61;100.00;100245.63;7392793;19;20014;-82
2023/04/30 01:38:50;;;;;;;9.77;1.90;;;;;;;16.57;100.00;100244.59;7389813;19;20095;-83
2023/04/30 01:41:38;;;;;;;3.35;1.35;;;;;;;15.63;100.00;100238.56;7387617;19;20477;-81
2023/04/30 01:44:28;;;;;;;6.53;1.75;;;;;;;16.20;100.00;100227.06;7387562;19;20021;-81
2023/04/30 01:47:05;;;;;;;7.72;1.67;;;;;;;15.82;100.00;100236.09;7390673;19;20044;-81
2023/04/30 01:50:06;;;;;;;9.23;1.73;;;;;;;13.85;100.00;100254.03;7387990;19;20022;-81
2023/04/30 01:52:49;;;;;;;4.57;2.65;;;;;;;13.18;100.00;100247.44;7389463;19;20078;-82
2023/04/30 01:55:40;;;;;;;4.82;1.90;;;;;;;13.08;100.00;100243.19;7389894;19;20019;-81
2023/04/30 01:58:11;;;;;;;9.00;3.22;;;;;;;11.82;100.00;100240.25;7388194;19;20391;-82
2023/04/30 02:00:37;;;;;;;;;;;;;;;17.77;100.00;100230.31;7388405;19;20042;-82
2023/04/30 02:03:03;;;;;;;2.03;1.50;;;;;;;15.73;100.00;100223.03;7393521;19;19919;-81
2023/04/30 02:05:30;;;;;;;8.55;1.40;;;;;;;19.20;100.00;100221.59;7399313;19;20010;-81
2023/04/30 02:07:56;;;;;;;6.30;2.05;;;;;;;19.88;100.00;100224.00;7396580;19;20019;-81
2023/04/30 02:10:25;;;;;;;6.97;2.13;;;;;;;17.41;100.00;100220.13;7395097;19;20044;-82
2023/04/30 02:12:52;;;;;;;4.45;2.72;;;;;;;16.17;100.00;100222.47;7398361;19;20050;-86
2023/04/30 02:15:18;;;;;;;3.60;1.33;;;;;;;12.78;100.00;100228.41;7398915;19;20018;-91
2023/04/30 02:17:44;;;;;;;2.92;1.80;;;;;;;13.51;100.00;100231.16;7399158;19;20476;-94
2023/04/30 02:20:11;;;;;;;4.15;1.65;;;;;;;17.74;100.00;100220.06;7396414;19;20050;-94
2023/04/30 02:22:37;;;;;;;5.80;2.78;;;;;;;18.98;100.00;100225.34;7398138;19;20007;-94
2023/04/30 02:25:04;;;;;;;11.77;2.72;;;;;;;19.76;100.00;100221.84;7394547;19;20011;-94
2023/04/30 02:27:31;;;;;;;5.05;1.50;;;;;;;24.40;99.51;100222.34;7401938;19;20014;-94
2023/04/30 02:29:59;;;;;;;4.70;2.03;;;;;;;29.43;66.21;100209.88;7399118;19;20349;-94
2023/04/30 02:32:25;;;;;;;3.45;2.30;;;;;;;30.77;57.19;100204.22;7398913;19;20018;-94
2023/04/30 02:34:51;;;;;;;3.20;2.17;;;;;;;31.27;53.27;100215.75;7398676;19;20007;-94
2023/04/30 02:37:17;;;;;;;8.88;2.50;;;;;;;32.00;50.21;100210.03;7398641;19;20111;-93
2023/04/30 02:39:43;;;;;;;5.93;1.95;;;;;;;32.60;47.54;100214.09;7399572;19;20033;-94
2023/04/30 02:42:10;;;;;;;4.72;2.17;;;;;;;33.04;45.44;100209.69;7399568;19;20022;-94
2023/04/30 02:44:36;;;;;;;7.35;2.55;;;;;;;33.13;44.35;100215.34;7400365;19;20511;-94
2023/04/30 02:47:03;;;;;;;2.92;1.52;;;;;;;33.25;43.48;100209.56;7398569;19;20023;-93
2023/04/30 02:49:30;;;;;;;6.72;2.60;;;;;;;33.33;42.84;100207.94;7401600;19;20018;-94
2023/04/30 02:51:57;;;;;;;9.43;3.33;;;;;;;33.21;42.46;100210.06;7399486;19;20347;-91
2023/04/30 02:54:23;;;;;;;6.57;3.47;;;;;;;33.13;42.15;100203.03;7396899;19;20014;-88
2023/04/30 02:56:49;;;;;;;5.70;2.03;;;;;;;33.25;41.32;100198.03;7399727;19;20380;-88
2023/04/30 02:59:15;;;;;;;6.60;3.13;;;;;;;33.21;41.47;100206.44;7397555;19;20019;-89
2023/04/30 03:01:42;;;;;;;10.05;3.25;;;;;;;33.48;41.00;100200.91;7396592;19;20485;-88
2023/04/30 03:04:08;;;;;;;6.65;2.92;;;;;;;33.48;40.24;100203.81;7394708;19;20027;-88
2023/04/30 03:06:34;;;;;;;1.30;1.20;;;;;;;33.44;40.70;100206.44;7396190;19;20370;-87
2023/04/30 03:09:00;;;;;;;5.93;2.20;;;;;;;33.62;40.15;100207.56;7398732;19;20011;-87
2023/04/30 03:11:26;;;;;;;10.95;2.78;;;;;;;33.78;39.39;100205.66;7394205;19;20364;-86
2023/04/30 03:13:52;;;;;;;3.13;2.15;;;;;;;33.82;39.22;100210.94;7395666;19;20015;-86
2023/04/30 03:16:20;;;;;;;6.15;1.70;;;;;;;33.92;39.17;100209.41;7396084;19;20018;-87
2023/04/30 03:18:50;;;;;;;11.10;2.58;;;;;;;33.92;38.69;100208.63;7398438;19;20362;-87
2023/04/30 03:21:16;;;;;;;5.90;2.58;;;;;;;34.05;38.67;100214.53;7396161;19;20003;-88
2023/04/30 03:23:42;;;;;;;6.85;2.72;;;;;;;34.07;38.41;100217.56;7400427;19;20022;-88
2023/04/30 03:26:08;;;;;;;13.05;3.13;;;;;;;34.19;38.16;100215.41;7396303;19;20022;-89
2023/04/30 03:28:34;;;;;;;11.52;3.17;;;;;;;34.18;37.83;100216.75;7401952;19;20007;-88
2023/04/30 03:31:04;;;;;;;10.02;3.08;;;;;;;34.14;37.58;100216.53;7396054;19;20011;-88
2023/04/30 03:33:31;;;;;;;9.35;2.40;;;;;;;33.95;37.49;100213.94;7400189;19;20469;-88
2023/04/30 03:35:58;;;;;;;12.45;3.70;;;;;;;33.91;37.48;100219.47;7396459;19;20090;-88
2023/04/30 03:38:24;;;;;;;7.60;3.88;;;;;;;33.78;37.62;100220.13;7395673;19;20045;-91
2023/04/30 03:40:50;;;;;;;5.05;2.85;;;;;;;33.91;37.68;100213.69;7394857;19;20239;-92
2023/04/30 03:43:16;;;;;;;9.82;3.55;;;;;;;33.82;37.56;100208.03;7397475;19;20026;-91
2023/04/30 03:45:42;;;;;;;6.20;2.88;;;;;;;33.79;37.46;100218.72;7395558;19;20472;-92
2023/04/30 03:48:08;;;;;;;7.97;2.55;;;;;;;33.86;37.29;100205.38;7398970;19;20010;-92
2023/04/30 03:50:35;;;;;;;4.95;2.53;;;;;;;33.88;37.15;100217.84;7394518;19;20070;-91
2023/04/30 03:53:01;;;;;;;7.35;3.65;;;;;;;33.77;37.01;100209.94;7398699;19;20031;-91
2023/04/30 03:55:27;;;;;;;9.30;3.03;;;;;;;33.69;37.00;100208.69;7395801;19;20010;-91
2023/04/30 03:57:53;;;;;;;8.27;2.25;;;;;;;33.72;36.81;100208.19;7395568;19;20010;-92
2023/04/30 04:00:20;;;;;;;6.78;2.80;;;;;;;33.70;36.87;100208.06;7394983;19;20027;-91
2023/04/30 04:02:49;;;;;;;5.40;2.20;;;;;;;33.45;36.64;100213.72;7396060;19;20022;-92
2023/04/30 04:05:15;;;;;;;5.90;2.22;;;;;;;33.43;36.68;100214.34;7396816;19;20022;-91
2023/04/30 04:07:42;;;;;;;7.30;2.45;;;;;;;33.44;36.74;100210.06;7395584;19;20014;-92
2023/04/30 04:10:09;;;;;;;9.38;3.65;;;;;;;33.52;36.42;100209.84;7394638;19;20045;-92
2023/04/30 04:12:35;;;;;;;12.82;2.97;;;;;;;33.35;36.58;100210.22;7394778;19;20343;-92
2023/04/30 04:15:01;;;;;;;12.63;4.22;;;;;;;33.29;36.34;100215.59;7396842;19;20018;-92
2023/04/30 04:17:29;;;;;;;15.45;4.50;;;;;;;33.36;36.56;100211.72;7394793;19;20078;-92
2023/04/30 04:19:55;;;;;;;4.63;2.03;;;;;;;33.34;36.59;100211.59;7395239;19;20017;-92
2023/04/30 04:22:22;;;;;;;11.55;3.20;;;;;;;33.26;36.50;100208.19;7394457;19;20010;-92
2023/04/30 04:24:48;;;;;;;3.45;2.08;;;;;;;33.17;36.36;100206.19;7394419;19;20048;-91
2023/04/30 04:27:19;;;;;;;9.70;2.20;;;;;;;32.98;36.54;100209.28;7396406;19;20537;-92
2023/04/30 04:29:46;;;;;;;6.97;2.08;;;;;;;33.04;36.30;100209.69;7393755;19;20027;-92
2023/04/30 04:32:13;;;;;;;5.25;1.88;;;;;;;33.15;35.91;100208.94;7394641;19;20059;-91
2023/04/30 04:34:41;;;;;;;20.02;3.97;;;;;;;33.19;36.34;100209.19;7394004;19;20010;-91
2023/04/30 04:37:08;;;;;;;7.00;2.47;;;;;;;33.38;35.97;100214.72;7393455;19;20034;-92
2023/04/30 04:39:36;;;;;;;9.70;3.10;;;;;;;33.42;35.88;100209.19;7395948;19;20018;-91
2023/04/30 04:42:03;;;;;;;10.90;3.53;;;;;;;33.41;35.75;100213.47;7394641;19;20338;-91
2023/04/30 04:44:30;;;;;;;6.85;3.38;;;;;;;33.42;35.72;100218.59;7393531;19;20014;-91
2023/04/30 04:46:56;;;;;;;6.40;3.90;;;;;;;33.36;35.70;100208.81;7393962;19;20018;-92
2023/04/30 04:49:23;;;;;;;10.07;3.28;;;;;;;33.11;35.82;100209.47;7398021;19;20036;-91
2023/04/30 04:51:51;;;;;;;8.15;2.97;;;;;;;33.02;35.53;100212.44;7396534;19;20022;-91
2023/04/30 04:54:17;;;;;;;7.10;2.22;;;;;;;32.88;35.58;100210.13;7394355;19;20011;-91
2023/04/30 04:56:43;;;;;;;5.10;2.53;;;;;;;32.92;36.09;100210.38;7393851;19;20014;-91
2023/04/30 04:59:09;;;;;;;11.00;3.55;;;;;;;32.87;35.49;100202.88;7393935;19;20025;-91
2023/04/30 05:01:35;;;;;;;6.50;3.00;;;;;;;32.85;35.76;100199.84;7394482;19;20015;-91
2023/04/30 05:04:02;;;;;;;9.23;2.28;;;;;;;32.80;35.59;100203.09;7393407;19;20026;-91
2023/04/30 05:06:28;;;;;;;11.68;3.47;;;;;;;32.81;35.45;100205.34;7395153;19;20023;-91
2023/04/30 05:08:54;;;;;;;7.18;3.65;;;;;;;32.99;34.72;100207.88;7393767;19;20050;-92
2023/04/30 05:11:21;;;;;;;10.25;2.83;;;;;;;33.18;35.21;100208.44;7392477;19;20010;-92
2023/04/30 05:13:47;;;;;;;15.40;3.25;;;;;;;33.25;34.95;100206.69;7394255;19;20028;-91
2023/04/30 05:16:13;;;;;;;11.85;3.67;;;;;;;33.09;35.06;100211.47;7394444;19;20022;-91
2023/04/30 05:18:40;;;;;;;11.68;2.50;;;;;;;32.97;34.68;100204.88;7397324;19;20022;-91
2023/04/30 05:21:06;;;;;;;8.48;2.47;;;;;;;32.74;34.96;100203.47;7393489;19;20011;-91
2023/04/30 05:23:32;;;;;;;10.27;1.90;;;;;;;32.87;34.96;100208.66;7391635;19;20010;-90
2023/04/30 05:25:58;;;;;;;8.68;3.58;;;;;;;32.81;34.51;100208.22;7393283;19;20018;-88
2023/04/30 05:28:24;;;;;;;5.20;2.78;;;;;;;32.97;34.50;100210.66;7397314;19;20044;-91
2023/04/30 05:30:50;;;;;;;4.97;2.67;;;;;;;33.00;34.29;100203.66;7394363;19;20069;-92
2023/04/30 05:33:16;;;;;;;6.32;2.20;;;;;;;33.06;34.14;100199.03;7398307;19;20037;-92
2023/04/30 05:35:43;;;;;;;6.47;1.88;;;;;;;33.03;33.86;100208.94;7392955;19;20010;-92
2023/04/30 05:38:09;;;;;;;15.50;4.35;;;;;;;32.92;33.82;100204.63;7391095;19;20017;-90
2023/04/30 05:40:35;;;;;;;11.23;4.07;;;;;;;23.65;44.02;100229.09;7393035;19;20054;-92
2023/04/30 05:43:01;;;;;;;4.57;1.67;;;;;;;14.56;100.00;100231.75;7391030;19;20019;-90
2023/04/30 05:45:27;;;;;;;8.93;3.33;;;;;;;19.21;100.00;100229.53;7394333;19;20023;-92
2023/04/30 05:47:53;;;;;;;5.38;2.75;;;;;;;19.67;100.00;100229.38;7394608;19;20385;-90
2023/04/30 05:50:19;;;;;;;7.22;1.75;;;;;;;20.25;97.61;100221.28;7400721;19;20010;-92
2023/04/30 05:52:45;;;;;;;3.55;2.13;;;;;;;20.73;94.84;100220.38;7394422;19;20010;-92
2023/04/30 05:55:12;;;;;;;7.18;2.45;;;;;;;16.49;100.00;100223.84;7392426;19;20018;-93
2023/04/30 05:57:38;;;;;;;8.13;4.07;;;;;;;14.89;100.00;100236.91;7392182;19;20060;-93
2023/04/30 06:00:06;;;;;;;7.70;3.13;;;;;;;28.13;63.34;100212.22;7394714;19;20022;-92
2023/04/30 06:02:38;;;;;;;6.78;2.08;;;;;;;30.59;49.29;100202.88;7393586;19;20010;-95
2023/04/30 06:05:06;;;;;;;7.97;2.45;;;;;;;31.40;45.21;100201.59;7401130;19;20014;-92
2023/04/30 06:07:32;;;;;;;2.17;1.80;;;;;;;31.95;42.86;100211.13;7399210;19;20006;-95
2023/04/30 06:09:59;;;;;;;4.75;2.15;;;;;;;32.40;40.28;100206.22;7395024;19;20372;-95
2023/04/30 06:12:25;;;;;;;4.40;1.55;;;;;;;32.57;39.38;100203.03;7394559;19;20023;-96
2023/04/30 06:14:51;;;;;;;11.75;1.95;;;;;;;32.97;38.27;100204.88;7398031;19;20015;-94
2023/04/30 06:17:18;;;;;;;6.43;2.13;;;;;;;33.00;37.43;100197.88;7394828;19;20074;-94
2023/04/30 06:19:44;;;;;;;5.53;1.92;;;;;;;33.03;36.80;100196.66;7396323;19;20484;-95
2023/04/30 06:22:10;;;;;;;3.08;2.03;;;;;;;33.23;36.34;100201.53;7399821;19;20007;-95
2023/04/30 06:24:36;;;;;;;3.38;1.35;;;;;;;33.14;35.73;100195.88;7401312;19;20046;-95
2023/04/30 06:27:02;;;;;;;7.47;1.98;;;;;;;33.06;35.40;100196.13;7400356;19;20040;-95
2023/04/30 06:29:28;;;;;;;14.15;1.98;;;;;;;33.02;34.99;100195.13;7401781;19;20037;-93
2023/04/30 06:31:55;;;;;;;3.85;1.60;;;;;;;32.96;34.76;100203.38;7397389;19;20010;-94
2023/04/30 06:34:21;;;;;;;11.55;3.15;;;;;;;32.92;34.64;100200.97;7394032;19;20019;-92
2023/04/30 06:36:47;;;;;;;2.28;0.88;;;;;;;32.81;34.69;100199.56;7394366;19;20053;-93
2023/04/30 06:39:14;;;;;;;11.15;1.58;;;;;;;32.33;34.59;100212.97;7393940;19;20014;-92
2023/04/30 06:41:41;;;;;;;2.15;1.40;;;;;;;32.59;34.51;100209.72;7392485;19;20014;-96
2023/04/30 06:44:09;;;;;;;2.00;1.27;;;;;;;32.46;34.75;100212.38;7403735;19;20026;-96
2023/04/30 06:46:35;;;;;;;2.80;1.73;;;;;;;31.61;35.04;100209.53;7395358;19;20508;-95
2023/04/30 06:49:01;;;;;;;2.78;1.20;;;;;;;22.63;48.06;100225.63;7399676;19;20018;-96
2023/04/30 06:51:27;;;;;;;3.80;1.48;;;;;;;20.93;58.93;100231.13;7401020;19;20020;-60
2023/04/30 06:53:54;;;;;;;2.92;1.50;;;;;;;22.08;61.91;100223.97;7399812;19;20014;-60
2023/04/30 06:56:20;;;;;;;3.60;1.50;;;;;;;15.20;100.00;100243.28;7399002;19;20015;-60
2023/04/30 06:58:49;;;;;;;1.65;1.35;;;;;;;15.30;100.00;100245.94;7399465;19;20003;-60
2023/04/30 07:01:16;;;;;;;4.75;1.77;;;;;;;20.34;95.04;100237.88;7397246;19;20465;-59
2023/04/30 07:03:42;;;;;;;5.97;2.83;;;;;;;20.83;85.05;100232.84;7399125;19;20006;-61
2023/04/30 07:06:08;;;;;;;6.47;2.08;;;;;;;20.67;84.74;100236.66;7401673;19;20042;-65
2023/04/30 07:08:34;;;;;;;12.20;2.05;;;;;;;19.80;90.89;100239.28;7402674;19;20320;-61
2023/04/30 07:11:00;;;;;;;9.38;2.20;;;;;;;19.68;90.33;100242.22;7401169;19;20049;-61
2023/04/30 07:13:26;;;;;;;6.28;1.65;;;;;;;20.10;91.94;100228.63;7401286;19;20014;-60
2023/04/30 07:15:53;;;;;;;5.00;2.80;;;;;;;18.39;97.50;100233.66;7401363;19;20015;-61
2023/04/30 07:18:20;;;;;;;6.50;1.73;;;;;;;17.84;100.00;100234.66;7400453;19;20585;-61
2023/04/30 07:20:46;;;;;;;3.72;1.73;;;;;;;17.79;100.00;100226.97;7398082;19;20042;-61
2023/04/30 07:23:12;;;;;;;5.05;2.15;;;;;;;20.91;89.24;100211.09;7397726;19;20039;-61
2023/04/30 07:25:38;;;;;;;5.13;1.63;;;;;;;21.18;86.50;100211.22;7398139;19;20006;-61
2023/04/30 07:28:04;;;;;;;5.05;2.63;;;;;;;21.48;82.03;100218.16;7400398;19;20016;-61
2023/04/30 07:30:30;;;;;;;11.52;3.38;;;;;;;19.75;90.15;100209.75;7398147;19;20021;-60
2023/04/30 07:32:56;;;;;;;13.82;2.67;;;;;;;21.63;85.54;100203.44;7398546;19;20014;-61
2023/04/30 07:35:22;;;;;;;14.88;3.38;;;;;;;23.69;71.72;100206.72;7397014;19;20467;-61
2023/04/30 07:37:49;;;;;;;5.90;2.33;;;;;;;23.04;68.30;100199.34;7398226;19;20017;-61
2023/04/30 07:40:15;;;;;;;6.00;2.50;;;;;;;20.86;80.70;100200.59;7397058;19;20506;-60
2023/04/30 07:42:41;;;;;;;6.05;2.72;;;;;;;20.46;86.63;100203.78;7398338;19;20336;-61
2023/04/30 07:45:08;;;;;;;5.47;1.80;;;;;;;20.49;87.58;100197.81;7398323;19;20348;-60
2023/04/30 07:47:34;;;;;;;3.83;1.73;;;;;;;24.40;76.53;100205.25;7397314;19;20360;-61
2023/04/30 07:50:00;;;;;;;3.20;1.50;;;;;;;22.50;67.75;100205.03;7398685;19;20023;-60
2023/04/30 07:52:26;;;;;;;5.32;1.65;;;;;;;20.34;84.54;100203.16;7397183;19;20377;-61
2023/04/30 07:54:52;;;;;;;8.32;2.58;;;;;;;19.82;94.47;100208.41;7397965;19;20052;-60
2023/04/30 07:57:19;;;;;;;16.13;4.25;;;;;;;17.82;100.00;100217.50;7397627;19;20149;-60
2023/04/30 07:59:45;;;;;;;11.70;3.55;;;;;;;20.66;95.39;100209.66;7396290;19;20017;-60
2023/04/30 08:02:11;;;;;;;7.75;1.83;;;;;;;23.10;75.56;100213.44;7400954;19;20470;-60
2023/04/30 08:04:37;;;;;;;12.80;2.50;;;;;;;21.16;81.90;100227.97;7397085;19;20015;-60
2023/04/30 08:07:03;;;;;;;13.45;2.92;;;;;;;20.48;85.15;100218.94;7396279;19;20015;-61
2023/04/30 08:09:30;;;;;;;16.20;4.35;;;;;;;27.62;61.30;100212.16;7397089;19;20018;-60
2023/04/30 08:11:56;;;;;;;16.20;4.22;;;;;;;31.57;42.61;100202.72;7396086;19;20021;-61
2023/04/30 08:14:22;;;;;;;10.02;3.65;;;;;;;32.21;39.03;100207.13;7400924;19;20010;-60
2023/04/30 08:16:48;;;;;;;22.90;6.32;;;;;;;32.74;37.35;100217.91;7397141;19;20208;-60
2023/04/30 08:19:14;;;;;;;13.48;2.83;;;;;;;32.73;36.61;100201.94;7400247;19;20015;-60
2023/04/30 08:21:41;;;;;;;16.40;5.85;;;;;;;32.77;35.75;100210.88;7396929;19;20070;-60
2023/04/30 08:24:07;;;;;;;7.30;3.50;;;;;;;32.86;35.50;100207.13;7394746;19;20018;-60
2023/04/30 08:26:33;;;;;;;9.77;3.45;;;;;;;33.08;35.40;100209.94;7400627;19;20011;-60
2023/04/30 08:28:59;;;;;;;14.15;4.22;;;;;;;32.99;34.51;100210.78;7396691;19;20052;-60
2023/04/30 08:31:25;;;;;;;5.75;3.05;;;;;;;33.28;34.24;100211.22;7397315;19;20021;-61
2023/04/30 08:33:51;;;;;;;8.55;3.35;;;;;;;33.29;33.45;100212.69;7396532;19;20017;-60
2023/04/30 08:36:18;;;;;;;12.38;2.13;;;;;;;33.37;33.61;100210.34;7395444;19;20022;-60
2023/04/30 08:38:44;;;;;;;14.32;3.92;;;;;;;33.34;33.59;100205.81;7399676;19;20507;-59
2023/04/30 08:41:12;;;;;;;18.83;3.38;;;;;;;33.51;33.14;100202.56;7396218;19;20031;-60
2023/04/30 08:43:39;;;;;;;8.45;3.15;;;;;;;33.48;32.97;100201.66;7394477;19;20010;-61
2023/04/30 08:46:06;;;;;;;13.18;2.15;;;;;;;33.64;32.84;100201.91;7394504;19;20011;-60
2023/04/30 08:48:32;;;;;;;4.38;2.83;;;;;;;33.68;32.45;100207.94;7397577;19;20018;-61
2023/04/30 08:51:00;;;;;;;7.07;3.20;;;;;;;33.86;32.22;100209.03;7399870;19;20014;-60
2023/04/30 08:53:26;;;;;;;6.18;2.22;;;;;;;33.83;31.74;100206.66;7395924;19;20015;-60
2023/04/30 08:55:53;;;;;;;4.57;2.97;;;;;;;33.78;32.16;100211.44;7395791;19;20006;-60
2023/04/30 08:58:19;;;;;;;2.75;1.60;;;;;;;33.48;32.06;100218.25;7395610;19;20007;-60
2023/04/30 09:00:45;;;;;;;6.60;1.80;;;;;;;33.47;32.85;100213.84;7394730;19;20030;-61
2023/04/30 09:03:11;;;;;;;11.32;2.35;;;;;;;33.43;33.29;100210.72;7399291;19;20055;-61
2023/04/30 09:05:37;;;;;;;4.38;1.73;;;;;;;33.29;33.17;100218.47;7396367;19;20021;-61
2023/04/30 09:08:05;;;;;;;8.48;2.65;;;;;;;33.26;33.82;100213.97;7393872;19;20078;-61
2023/04/30 09:10:33;;;;;;;7.93;2.42;;;;;;;33.34;34.06;100212.34;7395462;19;20466;-61
2023/04/30 09:13:08;;;;;;;11.85;1.60;;;;;;;33.32;34.01;100214.34;7393755;19;20018;-61
2023/04/30 09:15:37;;;;;;;6.18;2.97;;;;;;;33.08;33.96;100218.59;7394387;19;20010;-61
2023/04/30 09:18:16;;;;;;;3.55;1.50;;;;;;;32.92;34.26;100209.63;7396126;19;20431;-61
2023/04/30 09:20:57;;;;;;;2.38;1.83;;;;;;;32.76;34.34;100214.38;7395495;19;20402;-61
2023/04/30 09:23:24;;;;;;;2.17;1.52;;;;;;;32.76;34.75;100214.38;7393861;19;20015;-62
2023/04/30 09:25:50;;;;;;;3.78;1.08;;;;;;;32.76;34.65;100215.16;7396156;19;20092;-61
2023/04/30 09:28:17;;;;;;;5.30;1.20;;;;;;;32.91;35.14;100219.69;7398857;19;20019;-61
2023/04/30 09:30:44;;;;;;;2.97;1.15;;;;;;;33.36;34.68;100218.25;7394428;19;20011;-61
2023/04/30 09:33:10;;;;;;;4.65;1.92;;;;;;;33.25;34.77;100219.00;7394005;19;20042;-61
2023/04/30 09:35:38;;;;;;;3.55;1.17;;;;;;;32.97;34.79;100222.94;7395217;19;20014;-61
2023/04/30 09:38:05;;;;;;;3.78;2.05;;;;;;;32.92;34.82;100216.16;7398301;19;20342;-60
2023/04/30 09:40:41;;;;;;;3.72;1.45;;;;;;;32.99;34.86;100220.22;7394367;19;20011;-60
2023/04/30 09:43:08;;;;;;;5.97;2.10;;;;;;;32.89;34.92;100222.44;7392231;19;20355;-60
2023/04/30 09:45:47;;;;;;;3.50;1.38;;;;;;;32.64;34.95;100217.22;7392892;19;20370;-61
2023/04/30 09:48:19;;;;;;;3.90;1.23;;;;;;;32.59;35.42;100217.59;7395528;19;20010;-60
2023/04/30 09:50:46;;;;;;;6.55;1.80;;;;;;;32.49;35.25;100209.03;7393555;19;20010;-60
2023/04/30 09:53:13;;;;;;;7.70;2.85;;;;;;;32.33;35.12;100213.72;7394105;19;20021;-60
2023/04/30 09:55:44;;;;;;;3.05;1.65;;;;;;;32.27;35.43;100213.28;7392685;19;20014;-60
2023/04/30 09:58:12;;;;;;;5.38;1.80;;;;;;;32.34;35.71;100220.22;7394422;19;20006;-60
2023/04/30 10:00:39;;;;;;;2.15;1.65;;;;;;;32.50;35.70;100222.09;7392373;19;20014;-60
2023/04/30 10:03:10;;;;;;;6.70;2.08;;;;;;;32.53;35.80;100215.06;7392320;19;20014;-60
2023/04/30 10:05:39;;;;;;;5.70;1.27;;;;;;;17.32;100.00;100245.72;7392919;19;20022;-60
2023/04/30 10:08:12;;;;;;;3.13;1.40;;;;;;;15.30;100.00;100257.16;7393283;19;20073;-60
2023/04/30 10:10:41;;;;;;;10.57;2.17;;;;;;;14.38;100.00;100248.84;7391751;19;20014;-60
2023/04/30 10:13:13;;;;;;;4.05;1.25;;;;;;;14.35;100.00;100241.44;7393335;19;20015;-60
2023/04/30 10:15:47;;;;;;;7.05;2.03;;;;;;;15.08;100.00;100240.91;7392962;19;20039;-59
2023/04/30 10:18:27;;;;;;;2.45;1.55;;;;;;;13.83;100.00;100239.75;7395167;19;20018;-60
2023/04/30 10:20:54;;;;;;;3.75;1.70;;;;;;;23.98;100.00;100239.56;7395086;19;20018;-60
2023/04/30 10:23:21;;;;;;;14.55;1.98;;;;;;;30.33;56.60;100223.94;7391758;19;20039;-60
2023/04/30 10:25:48;;;;;;;8.13;1.90;;;;;;;33.21;45.21;100223.75;7403197;19;20007;-59
2023/04/30 10:28:14;;;;;;;7.53;2.78;;;;;;;34.24;40.80;100222.91;7403241;19;20412;-60
2023/04/30 10:30:44;;;;;;;8.43;1.77;;;;;;;34.47;38.41;100216.28;7400594;19;20011;-60
2023/04/30 10:33:51;;;;;;;5.65;1.73;;;;;;;34.77;37.51;100226.72;7399828;19;20010;-59
2023/04/30 10:36:47;;;;;;;2.05;1.60;;;;;;;34.58;35.70;100215.50;7399962;19;20006;-59
2023/04/30 10:39:17;;;;;;;5.82;2.03;;;;;;;34.69;35.68;100213.94;7400762;19;20010;-59
2023/04/30 10:41:45;;;;;;;6.33;1.33;;;;;;;34.75;35.14;100208.47;7400668;19;20017;-59
2023/04/30 10:44:12;;;;;;;9.00;2.85;;;;;;;34.87;35.34;100206.28;7397405;19;20011;-59
2023/04/30 10:46:38;;;;;;;3.70;1.00;;;;;;;34.97;34.82;100198.13;7399452;19;20011;-59
2023/04/30 10:49:04;;;;;;;3.75;1.70;;;;;;;35.14;34.49;100186.06;7400990;19;20078;-59
2023/04/30 10:51:53;;;;;;;5.55;1.88;;;;;;;35.69;34.80;100184.69;7398417;19;20015;-59
2023/04/30 10:54:29;;;;;;;3.60;1.30;;;;;;;35.86;33.62;100188.44;7398219;19;20035;-59
2023/04/30 10:57:16;;;;;;;4.50;1.70;;;;;;;36.08;32.87;100183.81;7401715;19;20014;-58
2023/04/30 10:59:51;;;;;;;7.43;2.30;;;;;;;35.98;33.23;100177.47;7398925;19;20011;-59
2023/04/30 11:02:17;;;;;;;4.75;1.58;;;;;;;36.05;32.25;100185.09;7399103;19;20034;-59
2023/04/30 11:05:06;;;;;;;11.70;2.67;;;;;;;36.40;32.54;100185.41;7399144;19;20010;-59
2023/04/30 11:07:33;;;;;;;6.45;1.58;;;;;;;36.75;32.32;100173.34;7396863;19;20491;-59
2023/04/30 11:10:00;;;;;;;2.85;1.60;;;;;;;36.93;32.12;100171.31;7398828;19;20078;-59
2023/04/30 11:12:27;;;;;;;5.00;1.77;;;;;;;36.91;31.38;100166.16;7398914;19;20015;-59
2023/04/30 11:15:11;;;;;;;10.77;2.05;;;;;;;37.11;31.51;100175.06;7399114;19;20014;-59
2023/04/30 11:17:38;;;;;;;4.30;1.75;;;;;;;37.05;30.73;100169.75;7398045;19;20015;-59
2023/04/30 11:20:05;;;;;;;5.45;1.75;;;;;;;37.42;30.96;100156.88;7398463;19;20038;-59
2023/04/30 11:22:37;;;;;;;6.80;2.05;;;;;;;37.57;30.04;100159.00;7397499;19;20015;-60
2023/04/30 11:25:05;;;;;;;9.88;2.80;;;;;;;37.74;30.48;100161.94;7399905;19;20362;-59
2023/04/30 11:27:33;;;;;;;6.43;1.52;;;;;;;38.06;29.51;100158.94;7401040;19;20048;-59
2023/04/30 11:30:00;;;;;;;8.48;2.30;;;;;;;38.28;29.79;100151.91;7397121;19;20026;-59